Time;durP1;ratioP1;P1;durP2;ratioP2;P2;SDS_P1;SDS_P2;PMS_P1;PMS_P2;Temp;Humidity;BMP_temperature;BMP_pressure;BME280_temperature;BME280_humidity;BME280_pressure;Samples;Min_cycle;Max_cycle;Signal;HPM_P1;HPM_P2
2022/05/27 00:01:40;;;;;;;3.83;1.25;;;;;;;;;;6188211;23;20005;-86
2022/05/27 00:04:06;;;;;;;3.95;1.10;;;;;;;;;;6161980;23;20024;-88
2022/05/27 00:06:33;;;;;;;4.13;1.23;;;;;;;;;;6188087;23;20008;-87
2022/05/27 00:08:59;;;;;;;3.22;1.70;;;;;;;;;;6162026;23;20012;-88
2022/05/27 00:11:25;;;;;;;2.78;1.80;;;;;;;;;;6188214;23;20334;-86
2022/05/27 00:13:52;;;;;;;3.90;2.38;;;;;;;;;;6161767;23;20017;-88
2022/05/27 00:16:19;;;;;;;5.78;2.20;;;;;;;;;;6161986;23;20016;-89
2022/05/27 00:18:45;;;;;;;6.03;1.70;;;;;;;;;;6161742;23;20040;-83
2022/05/27 00:21:12;;;;;;;3.58;1.60;;;;;;;;;;6161821;23;20005;-82
2022/05/27 00:23:39;;;;;;;2.80;1.40;;;;;;;;;;6161721;23;20036;-88
2022/05/27 00:26:06;;;;;;;4.10;1.67;;;;;;;;;;6161484;23;20012;-82
2022/05/27 00:28:34;;;;;;;3.40;1.35;;;;;;;;;;6161522;23;20012;-88
2022/05/27 00:31:00;;;;;;;3.15;1.40;;;;;;;;;;6161688;23;20056;-88
2022/05/27 00:33:26;;;;;;;3.65;1.10;;;;;;;;;;6161675;23;20001;-88
2022/05/27 00:35:52;;;;;;;11.23;1.35;;;;;;;;;;6161463;23;20096;-83
2022/05/27 00:38:22;;;;;;;4.57;1.10;;;;;;;;;;6187957;23;20009;-86
2022/05/27 00:40:50;;;;;;;5.00;1.10;;;;;;;;;;6161411;23;20008;-84
2022/05/27 00:43:16;;;;;;;3.92;1.40;;;;;;;;;;6161660;23;20035;-83
2022/05/27 00:45:43;;;;;;;3.15;1.00;;;;;;;;;;6161026;23;20008;-82
2022/05/27 00:48:18;;;;;;;3.58;1.20;;;;;;;;;;6161579;23;20056;-89
2022/05/27 00:50:46;;;;;;;3.08;1.40;;;;;;;;;;6161298;23;20012;-89
2022/05/27 00:53:21;;;;;;;3.13;1.70;;;;;;;;;;6161276;23;20308;-85
2022/05/27 00:55:50;;;;;;;3.10;1.40;;;;;;;;;;6160922;23;20009;-83
2022/05/27 00:58:25;;;;;;;2.60;0.98;;;;;;;;;;6161608;23;20435;-88
2022/05/27 01:00:52;;;;;;;5.20;1.33;;;;;;;;;;6161292;23;20005;-88
2022/05/27 01:03:18;;;;;;;4.90;1.00;;;;;;;;;;6187762;23;20055;-83
2022/05/27 01:05:45;;;;;;;2.78;1.00;;;;;;;;;;6187863;23;19997;-82
2022/05/27 01:08:12;;;;;;;3.83;0.88;;;;;;;;;;6161018;23;20083;-84
2022/05/27 01:10:57;;;;;;;6.57;1.10;;;;;;;;;;6161237;23;20104;-90
2022/05/27 01:13:50;;;;;;;2.75;0.90;;;;;;;;;;6161354;23;20005;-89
2022/05/27 01:16:16;;;;;;;3.70;1.08;;;;;;;;;;6181961;23;20013;-82
2022/05/27 01:21:46;;;;;;;1.90;0.95;;;;;;;;;;6187597;23;20016;-90
2022/05/27 01:24:29;;;;;;;2.92;1.08;;;;;;;;;;6161502;23;20012;-89
2022/05/27 01:27:01;;;;;;;5.03;1.40;;;;;;;;;;6161591;23;20001;-89
2022/05/27 01:29:36;;;;;;;3.33;1.00;;;;;;;;;;6161356;23;20419;-87
2022/05/27 01:32:08;;;;;;;4.05;1.25;;;;;;;;;;6161075;23;20051;-83
2022/05/27 01:34:41;;;;;;;2.25;0.90;;;;;;;;;;6161119;23;20012;-88
2022/05/27 01:37:16;;;;;;;5.88;1.40;;;;;;;;;;6161190;23;20324;-89
2022/05/27 01:39:48;;;;;;;2.15;0.98;;;;;;;;;;6162157;23;20002;-94
2022/05/27 01:42:19;;;;;;;3.83;0.98;;;;;;;;;;6161864;23;20001;-86
2022/05/27 01:44:52;;;;;;;4.15;1.10;;;;;;;;;;6161796;23;20485;-89
2022/05/27 01:47:22;;;;;;;4.22;1.10;;;;;;;;;;6162186;23;20449;-89
2022/05/27 01:49:56;;;;;;;4.75;1.10;;;;;;;;;;6162038;23;20100;-89
2022/05/27 01:52:25;;;;;;;3.95;0.93;;;;;;;;;;6161329;23;20001;-88
2022/05/27 01:54:56;;;;;;;5.70;1.17;;;;;;;;;;6161044;23;20016;-88
2022/05/27 01:57:29;;;;;;;2.67;1.00;;;;;;;;;;6161241;23;20012;-85
2022/05/27 02:00:21;;;;;;;5.38;1.00;;;;;;;;;;6161066;23;20113;-89
2022/05/27 02:03:10;;;;;;;4.25;1.20;;;;;;;;;;6157193;23;20001;-89
2022/05/27 02:05:45;;;;;;;4.72;1.35;;;;;;;;;;6161045;23;20005;-88
2022/05/27 02:08:22;;;;;;;4.05;1.27;;;;;;;;;;6160380;23;20005;-89
2022/05/27 02:11:05;;;;;;;4.18;1.13;;;;;;;;;;6161062;23;20005;-90
2022/05/27 02:13:41;;;;;;;9.18;1.33;;;;;;;;;;6160803;23;20005;-89
2022/05/27 02:16:17;;;;;;;5.65;1.10;;;;;;;;;;6160666;23;20386;-89
2022/05/27 02:18:44;;;;;;;4.07;1.10;;;;;;;;;;6160849;23;20009;-89
2022/05/27 02:21:46;;;;;;;5.28;1.00;;;;;;;;;;6161334;23;20009;-87
2022/05/27 02:24:24;;;;;;;8.70;1.25;;;;;;;;;;6067349;23;20007;-87
2022/05/27 02:26:54;;;;;;;6.03;1.50;;;;;;;;;;6135707;23;20031;-87
2022/05/27 02:29:24;;;;;;;4.20;1.20;;;;;;;;;;6161794;23;20009;-89
2022/05/27 02:31:54;;;;;;;6.07;1.20;;;;;;;;;;6161174;23;20371;-87
2022/05/27 02:37:11;;;;;;;4.13;1.17;;;;;;;;;;6186991;23;20052;-88
2022/05/27 02:39:38;;;;;;;6.13;1.10;;;;;;;;;;6160576;23;20001;-88
2022/05/27 02:42:07;;;;;;;5.82;1.58;;;;;;;;;;6160603;23;20458;-85
2022/05/27 02:44:33;;;;;;;5.00;1.27;;;;;;;;;;6160618;23;20005;-84
2022/05/27 02:47:14;;;;;;;4.50;1.50;;;;;;;;;;6186549;23;20048;-88
2022/05/27 02:49:59;;;;;;;3.10;1.17;;;;;;;;;;6160687;23;20464;-89
2022/05/27 02:52:54;;;;;;;3.45;1.60;;;;;;;;;;6160542;23;20079;-81
2022/05/27 02:55:29;;;;;;;2.35;1.10;;;;;;;;;;6183357;23;20013;-88
2022/05/27 02:57:58;;;;;;;5.03;1.33;;;;;;;;;;6160627;23;20017;-86
2022/05/27 03:00:26;;;;;;;6.47;1.23;;;;;;;;;;6160573;23;20007;-89
2022/05/27 03:11:13;;;;;;;3.55;1.40;;;;;;;;;;6166790;23;20088;-85
2022/05/27 03:13:42;;;;;;;3.92;1.10;;;;;;;;;;6156035;23;20081;-89
2022/05/27 03:16:29;;;;;;;4.95;1.33;;;;;;;;;;6155122;23;20017;-89
2022/05/27 03:19:04;;;;;;;7.57;1.15;;;;;;;;;;6156309;23;20008;-88
2022/05/27 03:22:00;;;;;;;2.55;1.10;;;;;;;;;;6157794;23;20089;-88
2022/05/27 03:24:44;;;;;;;3.72;1.52;;;;;;;;;;6069421;23;20117;-89
2022/05/27 03:27:29;;;;;;;5.13;1.40;;;;;;;;;;6044665;23;20007;-88
2022/05/27 03:30:24;;;;;;;5.65;1.50;;;;;;;;;;6045260;23;20046;-88
2022/05/27 03:32:50;;;;;;;4.60;1.52;;;;;;;;;;6068887;23;20007;-88
2022/05/27 03:35:33;;;;;;;4.82;1.42;;;;;;;;;;6045108;23;20007;-88
2022/05/27 03:38:41;;;;;;;6.40;1.80;;;;;;;;;;6045070;23;20018;-89
2022/05/27 03:41:10;;;;;;;6.85;1.85;;;;;;;;;;5998310;23;20082;-87
2022/05/27 03:43:37;;;;;;;4.40;1.50;;;;;;;;;;6162163;23;20056;-81
2022/05/27 03:46:33;;;;;;;3.67;1.33;;;;;;;;;;6157304;23;20006;-88
2022/05/27 03:48:59;;;;;;;3.83;1.35;;;;;;;;;;6178108;23;20439;-88
2022/05/27 03:51:31;;;;;;;5.90;1.52;;;;;;;;;;6157408;23;20309;-89
2022/05/27 03:54:09;;;;;;;3.75;1.30;;;;;;;;;;6157241;23;20009;-89
2022/05/27 03:56:43;;;;;;;5.88;1.70;;;;;;;;;;6156953;23;20010;-89
2022/05/27 03:59:09;;;;;;;;;;;;;;;;;;6158039;23;20006;-89
2022/05/27 04:01:41;;;;;;;4.10;1.65;;;;;;;;;;6157534;23;19953;-88
2022/05/27 04:04:22;;;;;;;3.67;1.60;;;;;;;;;;6156905;23;20037;-88
2022/05/27 04:06:54;;;;;;;6.05;1.38;;;;;;;;;;6157455;23;20009;-88
2022/05/27 04:09:27;;;;;;;4.78;1.55;;;;;;;;;;6156957;23;20009;-88
2022/05/27 04:12:08;;;;;;;4.00;1.50;;;;;;;;;;6156622;23;20043;-88
2022/05/27 04:14:38;;;;;;;2.97;1.27;;;;;;;;;;6159712;23;20488;-88
2022/05/27 04:19:48;;;;;;;4.88;1.40;;;;;;;;;;6158569;23;20055;-81
2022/05/27 04:22:27;;;;;;;4.60;1.10;;;;;;;;;;6156202;23;20555;-81
2022/05/27 04:24:54;;;;;;;3.60;1.05;;;;;;;;;;6158634;23;20002;-83
2022/05/27 04:27:29;;;;;;;3.90;1.08;;;;;;;;;;6156457;23;20005;-83
2022/05/27 04:29:55;;;;;;;2.45;1.00;;;;;;;;;;6156404;23;20009;-81
2022/05/27 04:32:37;;;;;;;3.08;0.90;;;;;;;;;;6155584;23;20431;-87
2022/05/27 04:35:03;;;;;;;1.85;0.80;;;;;;;;;;6156789;23;20012;-90
2022/05/27 04:37:31;;;;;;;3.13;1.10;;;;;;;;;;6156505;23;20013;-90
2022/05/27 04:39:58;;;;;;;3.55;1.00;;;;;;;;;;6156882;23;20002;-91
2022/05/27 04:42:25;;;;;;;3.40;0.82;;;;;;;;;;6155631;23;20012;-81
2022/05/27 04:44:58;;;;;;;2.97;1.10;;;;;;;;;;6156039;23;20006;-88
2022/05/27 04:47:24;;;;;;;5.35;1.00;;;;;;;;;;6158276;23;19998;-90
2022/05/27 04:49:54;;;;;;;1.88;0.73;;;;;;;;;;6156728;23;20009;-91
2022/05/27 04:52:28;;;;;;;3.33;0.63;;;;;;;;;;6157063;23;20010;-94
2022/05/27 04:54:58;;;;;;;2.92;0.75;;;;;;;;;;6156412;23;20006;-90
2022/05/27 04:57:51;;;;;;;2.03;0.40;;;;;;;;;;6160985;23;20021;-92
2022/05/27 05:00:17;;;;;;;3.60;0.75;;;;;;;;;;6157597;23;20029;-89
2022/05/27 05:02:55;;;;;;;1.90;0.30;;;;;;;;;;6156531;23;20332;-93
2022/05/27 05:05:37;;;;;;;2.35;0.70;;;;;;;;;;6156055;23;20009;-92
2022/05/27 05:08:28;;;;;;;3.47;0.60;;;;;;;;;;6156188;23;20260;-90
2022/05/27 05:10:54;;;;;;;3.80;0.40;;;;;;;;;;6156479;23;20248;-86
2022/05/27 05:13:21;;;;;;;0.60;0.30;;;;;;;;;;6155549;23;20009;-88
2022/05/27 05:16:05;;;;;;;2.13;0.50;;;;;;;;;;6155584;23;20018;-91
2022/05/27 05:18:31;;;;;;;2.03;0.60;;;;;;;;;;6157250;23;20016;-84
2022/05/27 05:21:00;;;;;;;1.13;0.50;;;;;;;;;;6157224;23;20005;-88
2022/05/27 05:23:26;;;;;;;2.75;0.50;;;;;;;;;;6157690;23;20123;-89
2022/05/27 05:25:52;;;;;;;4.38;0.60;;;;;;;;;;6154060;23;20001;-79
2022/05/27 05:28:18;;;;;;;3.50;0.70;;;;;;;;;;6155195;23;20006;-87
2022/05/27 05:30:45;;;;;;;2.72;0.50;;;;;;;;;;6155548;23;20076;-86
2022/05/27 05:33:11;;;;;;;3.70;0.57;;;;;;;;;;6155120;23;20006;-81
2022/05/27 05:35:37;;;;;;;1.67;0.60;;;;;;;;;;6155082;23;20093;-82
2022/05/27 05:38:04;;;;;;;1.63;0.50;;;;;;;;;;6154974;23;20120;-83
2022/05/27 05:40:30;;;;;;;3.58;0.60;;;;;;;;;;6154990;23;20033;-83
2022/05/27 05:42:56;;;;;;;1.48;0.50;;;;;;;;;;6155310;23;20013;-84
2022/05/27 05:45:25;;;;;;;1.35;0.45;;;;;;;;;;6155626;23;20005;-89
2022/05/27 05:48:00;;;;;;;3.05;0.85;;;;;;;;;;6155076;23;20012;-85
2022/05/27 05:50:27;;;;;;;1.30;0.40;;;;;;;;;;6155363;23;20013;-85
2022/05/27 05:52:59;;;;;;;2.90;0.50;;;;;;;;;;6155196;23;20041;-84
2022/05/27 05:55:31;;;;;;;1.58;0.50;;;;;;;;;;6155295;23;20431;-86
2022/05/27 05:58:01;;;;;;;1.90;0.50;;;;;;;;;;6155175;23;20101;-81
2022/05/27 06:00:29;;;;;;;2.53;0.45;;;;;;;;;;6155122;23;20068;-80
2022/05/27 06:02:56;;;;;;;1.85;0.50;;;;;;;;;;6154792;23;20017;-82
2022/05/27 06:05:22;;;;;;;2.90;0.77;;;;;;;;;;6154957;23;20009;-80
2022/05/27 06:07:49;;;;;;;2.45;0.60;;;;;;;;;;6154712;23;20010;-79
2022/05/27 06:10:16;;;;;;;2.15;0.70;;;;;;;;;;6154561;23;20048;-81
2022/05/27 06:12:43;;;;;;;1.95;0.60;;;;;;;;;;6154886;23;20005;-79
2022/05/27 06:15:13;;;;;;;2.78;0.50;;;;;;;;;;6156245;23;19997;-88
2022/05/27 06:17:39;;;;;;;2.08;0.50;;;;;;;;;;6155131;23;20013;-83
2022/05/27 06:20:06;;;;;;;6.82;0.88;;;;;;;;;;6154816;23;20001;-83
2022/05/27 06:22:33;;;;;;;2.83;0.60;;;;;;;;;;6154382;23;20084;-83
2022/05/27 06:24:59;;;;;;;3.95;0.60;;;;;;;;;;6154488;23;20001;-85
2022/05/27 06:27:26;;;;;;;1.20;0.40;;;;;;;;;;6154581;23;20012;-81
2022/05/27 06:34:23;;;;;;;2.13;0.73;;;;;;;;;;6156994;23;20024;-81
2022/05/27 06:35:38;;;;;;;2.40;0.80;;;;;;;;;;6157060;23;20006;-83
2022/05/27 06:38:09;;;;;;;2.90;1.27;;;;;;;;;;6160642;23;20024;-88
2022/05/27 06:40:35;;;;;;;3.45;1.20;;;;;;;;;;6155590;23;20060;-74
2022/05/27 06:43:01;;;;;;;3.85;0.60;;;;;;;;;;6154506;23;20335;-73
2022/05/27 06:45:27;;;;;;;3.38;0.60;;;;;;;;;;6154513;23;20044;-78
2022/05/27 06:47:53;;;;;;;2.38;0.90;;;;;;;;;;6154277;23;20039;-74
2022/05/27 06:50:20;;;;;;;2.17;0.60;;;;;;;;;;6155772;23;20124;-74
2022/05/27 06:52:46;;;;;;;2.58;0.80;;;;;;;;;;6153955;23;20010;-73
2022/05/27 06:55:13;;;;;;;2.78;0.80;;;;;;;;;;6154230;23;20006;-75
2022/05/27 06:57:40;;;;;;;2.50;0.93;;;;;;;;;;6155998;23;20065;-74
2022/05/27 07:00:07;;;;;;;4.45;0.85;;;;;;;;;;6154108;23;20001;-73
2022/05/27 07:02:34;;;;;;;5.80;1.00;;;;;;;;;;6154240;23;20499;-76
2022/05/27 07:05:00;;;;;;;3.80;1.00;;;;;;;;;;6155943;23;20002;-83
2022/05/27 07:07:30;;;;;;;2.40;0.80;;;;;;;;;;6154982;23;20009;-85
2022/05/27 07:10:00;;;;;;;3.55;0.88;;;;;;;;;;6154772;23;20006;-83
2022/05/27 07:12:32;;;;;;;3.10;0.95;;;;;;;;;;6157504;23;20320;-82
2022/05/27 07:14:58;;;;;;;3.43;0.70;;;;;;;;;;6156360;23;20073;-81
2022/05/27 07:17:24;;;;;;;4.55;0.98;;;;;;;;;;6154646;23;20017;-82
2022/05/27 07:19:50;;;;;;;5.03;0.63;;;;;;;;;;6156150;23;19998;-82
2022/05/27 07:22:28;;;;;;;3.55;0.68;;;;;;;;;;6155567;23;20711;-93
2022/05/27 07:24:54;;;;;;;3.05;0.70;;;;;;;;;;6155787;23;20076;-88
2022/05/27 07:27:20;;;;;;;3.35;0.60;;;;;;;;;;6154300;23;20080;-81
2022/05/27 07:32:38;;;;;;;3.65;0.70;;;;;;;;;;6152123;23;20037;-83
2022/05/27 07:35:05;;;;;;;2.85;0.75;;;;;;;;;;6154208;23;20002;-82
2022/05/27 07:37:31;;;;;;;3.17;0.65;;;;;;;;;;6154014;23;20013;-83
2022/05/27 07:39:57;;;;;;;3.72;0.70;;;;;;;;;;6154486;23;20001;-83
2022/05/27 07:42:24;;;;;;;6.18;0.85;;;;;;;;;;6154356;23;20012;-81
2022/05/27 07:44:52;;;;;;;1.77;0.40;;;;;;;;;;6154323;23;20056;-82
2022/05/27 07:47:19;;;;;;;2.45;0.70;;;;;;;;;;6155679;23;20005;-82
2022/05/27 07:49:48;;;;;;;2.25;0.55;;;;;;;;;;6154171;23;20339;-96
2022/05/27 07:52:14;;;;;;;1.42;0.60;;;;;;;;;;6156126;23;20033;-81
2022/05/27 07:54:41;;;;;;;4.25;0.82;;;;;;;;;;6155038;23;20089;-86
2022/05/27 08:02:58;;;;;;;3.45;0.70;;;;;;;;;;6159668;23;20029;-86
2022/05/27 08:05:48;;;;;;;2.53;0.68;;;;;;;;;;6156422;23;20439;-84
2022/05/27 08:08:14;;;;;;;2.08;0.60;;;;;;;;;;6144377;23;20158;-82
2022/05/27 08:10:40;;;;;;;3.47;0.80;;;;;;;;;;6155624;23;20001;-77
2022/05/27 08:13:07;;;;;;;3.70;0.73;;;;;;;;;;6156806;23;20002;-77
2022/05/27 08:15:34;;;;;;;3.00;0.82;;;;;;;;;;6155818;23;20044;-77
2022/05/27 08:18:00;;;;;;;4.70;0.80;;;;;;;;;;6156973;23;20072;-78
2022/05/27 08:20:28;;;;;;;3.47;0.60;;;;;;;;;;6157339;23;19998;-78
2022/05/27 08:22:54;;;;;;;3.15;0.70;;;;;;;;;;6155768;23;20014;-80
2022/05/27 08:25:24;;;;;;;2.45;0.60;;;;;;;;;;6155502;23;20008;-77
2022/05/27 08:27:51;;;;;;;3.70;0.60;;;;;;;;;;6157305;23;20028;-76
2022/05/27 08:30:19;;;;;;;2.83;0.63;;;;;;;;;;6157320;23;20431;-78
2022/05/27 08:32:47;;;;;;;3.28;0.80;;;;;;;;;;6155422;23;20005;-81
2022/05/27 08:38:03;;;;;;;3.65;0.60;;;;;;;;;;6157169;23;20080;-79
2022/05/27 08:40:44;;;;;;;2.17;0.60;;;;;;;;;;6155535;23;20001;-79
2022/05/27 08:43:10;;;;;;;2.00;0.43;;;;;;;;;;6156978;23;20006;-79
2022/05/27 08:45:43;;;;;;;3.92;0.70;;;;;;;;;;6157080;23;20140;-78
2022/05/27 08:48:10;;;;;;;5.68;0.70;;;;;;;;;;6153430;23;20006;-79
2022/05/27 08:50:39;;;;;;;5.13;0.60;;;;;;;;;;6155128;23;20044;-78
2022/05/27 08:53:21;;;;;;;6.07;0.60;;;;;;;;;;6155313;23;20012;-78
2022/05/27 09:01:24;;;;;;;2.22;0.70;;;;;;;;;;6156851;23;20477;-76
2022/05/27 09:04:00;;;;;;;4.07;0.50;;;;;;;;;;6155320;23;20017;-77
2022/05/27 09:06:56;;;;;;;3.70;0.50;;;;;;;;;;6154285;23;20424;-76
2022/05/27 09:09:24;;;;;;;1.85;0.60;;;;;;;;;;6155006;23;20021;-78
2022/05/27 09:12:05;;;;;;;2.03;0.65;;;;;;;;;;6155359;23;20012;-76
2022/05/27 09:14:33;;;;;;;3.35;0.50;;;;;;;;;;6154992;23;20088;-77
2022/05/27 09:17:04;;;;;;;4.90;0.70;;;;;;;;;;6156606;23;20009;-78
2022/05/27 09:19:30;;;;;;;4.18;0.80;;;;;;;;;;6155122;23;20448;-77
2022/05/27 09:22:15;;;;;;;4.10;0.55;;;;;;;;;;6155298;23;20020;-76
2022/05/27 09:24:54;;;;;;;5.22;0.77;;;;;;;;;;6154972;23;20010;-79
2022/05/27 09:27:32;;;;;;;3.10;0.60;;;;;;;;;;6155003;23;20072;-78
2022/05/27 09:30:00;;;;;;;5.57;0.90;;;;;;;;;;6155144;23;20037;-77
2022/05/27 09:32:31;;;;;;;2.92;0.93;;;;;;;;;;6155102;23;20001;-78
2022/05/27 09:34:59;;;;;;;3.40;0.70;;;;;;;;;;6154857;23;20031;-80
2022/05/27 09:37:33;;;;;;;3.90;0.70;;;;;;;;;;6156561;23;20013;-81
2022/05/27 09:40:01;;;;;;;4.30;0.70;;;;;;;;;;6155148;23;20030;-78
2022/05/27 09:42:31;;;;;;;4.68;0.88;;;;;;;;;;6156342;23;20072;-80
2022/05/27 09:44:58;;;;;;;3.55;0.65;;;;;;;;;;6154837;23;20051;-79
2022/05/27 09:47:30;;;;;;;5.53;0.75;;;;;;;;;;6154839;23;20009;-79
2022/05/27 09:49:59;;;;;;;3.50;0.60;;;;;;;;;;6154993;23;20009;-78
2022/05/27 09:52:25;;;;;;;2.30;0.50;;;;;;;;;;6156496;23;20001;-82
2022/05/27 09:54:59;;;;;;;2.83;0.60;;;;;;;;;;6156315;23;20001;-81
2022/05/27 09:57:27;;;;;;;4.68;0.60;;;;;;;;;;6154631;23;20044;-82
2022/05/27 09:59:58;;;;;;;2.33;0.50;;;;;;;;;;6156488;23;20423;-79
2022/05/27 10:02:28;;;;;;;5.15;0.68;;;;;;;;;;6156048;23;20013;-81
2022/05/27 10:04:59;;;;;;;5.65;0.70;;;;;;;;;;6154553;23;20340;-80
2022/05/27 10:07:27;;;;;;;5.15;0.50;;;;;;;;;;6154695;23;20424;-81
2022/05/27 10:09:54;;;;;;;8.70;0.60;;;;;;;;;;6155006;23;20088;-85
2022/05/27 10:12:30;;;;;;;2.83;0.50;;;;;;;;;;6156315;23;20005;-83
2022/05/27 10:14:56;;;;;;;6.22;0.50;;;;;;;;;;6154690;23;20013;-77
2022/05/27 10:17:28;;;;;;;6.28;0.65;;;;;;;;;;6154501;23;20017;-79
2022/05/27 10:20:12;;;;;;;4.85;0.68;;;;;;;;;;6154959;23;20016;-82
2022/05/27 10:22:39;;;;;;;9.13;0.65;;;;;;;;;;6154881;23;20005;-78
2022/05/27 10:25:16;;;;;;;4.13;0.60;;;;;;;;;;6160710;23;20028;-83
2022/05/27 10:28:02;;;;;;;4.97;0.50;;;;;;;;;;6154671;23;20100;-81
2022/05/27 10:30:30;;;;;;;7.90;0.70;;;;;;;;;;6156116;23;20096;-77
2022/05/27 10:32:56;;;;;;;4.00;0.50;;;;;;;;;;6154635;23;20016;-81
2022/05/27 10:35:23;;;;;;;9.98;0.60;;;;;;;;;;6156226;23;20044;-82
2022/05/27 10:38:11;;;;;;;5.10;0.70;;;;;;;;;;6154554;23;20029;-76
2022/05/27 10:40:37;;;;;;;14.05;1.10;;;;;;;;;;6155945;23;20093;-81
2022/05/27 10:43:15;;;;;;;3.83;0.70;;;;;;;;;;6154424;23;20009;-80
2022/05/27 10:45:44;;;;;;;3.83;0.65;;;;;;;;;;6154643;23;20029;-78
2022/05/27 10:48:11;;;;;;;6.43;0.85;;;;;;;;;;6154554;23;20096;-79
2022/05/27 10:50:37;;;;;;;11.15;0.77;;;;;;;;;;6154612;23;20006;-79
2022/05/27 10:53:03;;;;;;;7.13;0.65;;;;;;;;;;6156129;23;20073;-80
2022/05/27 10:55:35;;;;;;;3.03;0.50;;;;;;;;;;6153964;23;20092;-83
2022/05/27 11:03:46;;;;;;;6.07;1.20;;;;;;;;;;6153884;23;20076;-78
2022/05/27 11:06:15;;;;;;;5.35;0.68;;;;;;;;;;6153500;23;20005;-78
2022/05/27 11:08:57;;;;;;;7.32;0.75;;;;;;;;;;6155967;23;20001;-81
2022/05/27 11:11:28;;;;;;;5.25;0.70;;;;;;;;;;6156593;23;20012;-80
2022/05/27 11:16:43;;;;;;;2.22;0.55;;;;;;;;;;6157790;23;20084;-77
2022/05/27 11:19:28;;;;;;;10.10;0.77;;;;;;;;;;6154081;23;20033;-77
2022/05/27 11:22:12;;;;;;;1.95;0.52;;;;;;;;;;6154276;23;20005;-80
2022/05/27 11:24:57;;;;;;;3.85;0.60;;;;;;;;;;6155967;23;20002;-68
2022/05/27 11:27:38;;;;;;;2.65;0.60;;;;;;;;;;6154160;23;20309;-80
2022/05/27 11:30:19;;;;;;;2.30;0.50;;;;;;;;;;6153919;23;20001;-80
2022/05/27 11:32:53;;;;;;;4.82;0.80;;;;;;;;;;6155652;23;20002;-81
2022/05/27 11:35:22;;;;;;;3.95;0.70;;;;;;;;;;6154116;23;20470;-81
2022/05/27 11:37:54;;;;;;;6.95;1.08;;;;;;;;;;6153868;23;20391;-79
2022/05/27 11:40:51;;;;;;;4.63;0.63;;;;;;;;;;6155763;23;20001;-86
2022/05/27 11:43:29;;;;;;;3.15;0.70;;;;;;;;;;6155873;23;20037;-81
2022/05/27 11:45:55;;;;;;;4.72;0.60;;;;;;;;;;6156120;23;20005;-83
2022/05/27 11:48:39;;;;;;;8.35;0.70;;;;;;;;;;6155604;23;20033;-82
2022/05/27 11:51:21;;;;;;;4.70;0.70;;;;;;;;;;6155910;23;20092;-81
2022/05/27 11:53:58;;;;;;;1.58;0.57;;;;;;;;;;6155763;23;20010;-84
2022/05/27 11:56:43;;;;;;;4.13;0.55;;;;;;;;;;6155552;23;20006;-81
2022/05/27 11:59:15;;;;;;;2.95;0.60;;;;;;;;;;6155882;23;20016;-83
2022/05/27 12:01:59;;;;;;;5.18;0.80;;;;;;;;;;6156252;23;20008;-80
2022/05/27 12:04:31;;;;;;;5.72;0.80;;;;;;;;;;6127315;23;20021;-83
2022/05/27 12:07:16;;;;;;;3.17;0.50;;;;;;;;;;6102381;23;20021;-87
2022/05/27 12:09:46;;;;;;;6.70;0.70;;;;;;;;;;6102333;23;20010;-82
2022/05/27 12:12:25;;;;;;;5.55;0.80;;;;;;;;;;6102351;23;20002;-92
2022/05/27 12:15:00;;;;;;;5.05;0.63;;;;;;;;;;6102359;23;20010;-79
2022/05/27 12:17:35;;;;;;;2.67;0.50;;;;;;;;;;6101998;23;20014;-78
2022/05/27 12:20:03;;;;;;;3.50;0.50;;;;;;;;;;6101184;23;20436;-82
2022/05/27 12:22:33;;;;;;;4.68;0.70;;;;;;;;;;6101413;23;20006;-81
2022/05/27 12:25:19;;;;;;;4.10;0.55;;;;;;;;;;6067467;23;20082;-84
2022/05/27 12:27:46;;;;;;;2.05;0.75;;;;;;;;;;6068293;23;20007;-82
2022/05/27 12:30:26;;;;;;;3.15;0.50;;;;;;;;;;6069234;23;20421;-87
2022/05/27 12:32:53;;;;;;;1.10;0.50;;;;;;;;;;6067941;23;20011;-86
2022/05/27 12:35:20;;;;;;;3.65;0.60;;;;;;;;;;6068297;23;20002;-83
2022/05/27 12:37:51;;;;;;;3.55;0.68;;;;;;;;;;6069315;23;20014;-82
2022/05/27 12:40:23;;;;;;;4.97;0.65;;;;;;;;;;6076395;23;20337;-81
2022/05/27 12:42:54;;;;;;;2.60;0.80;;;;;;;;;;6068766;23;20007;-82
2022/05/27 12:45:23;;;;;;;4.43;0.80;;;;;;;;;;6069542;23;20380;-82
2022/05/27 12:47:51;;;;;;;2.88;0.52;;;;;;;;;;6067679;23;20070;-83
2022/05/27 12:50:22;;;;;;;2.33;0.70;;;;;;;;;;6066899;23;20096;-79
2022/05/27 12:52:48;;;;;;;3.38;0.80;;;;;;;;;;6066934;23;20471;-77
2022/05/27 12:55:41;;;;;;;6.85;0.75;;;;;;;;;;6078268;23;20014;-81
2022/05/27 13:01:02;;;;;;;3.97;0.73;;;;;;;;;;6128059;23;20076;-80
2022/05/27 13:03:49;;;;;;;2.25;0.60;;;;;;;;;;6134937;23;20100;-83
2022/05/27 13:06:19;;;;;;;2.70;0.77;;;;;;;;;;6155237;23;20041;-80
2022/05/27 13:08:48;;;;;;;3.45;0.80;;;;;;;;;;6157310;23;20327;-81
2022/05/27 13:11:41;;;;;;;3.50;0.70;;;;;;;;;;6157030;23;19998;-78
2022/05/27 13:14:07;;;;;;;4.45;0.77;;;;;;;;;;6156978;23;19998;-82
2022/05/27 13:16:43;;;;;;;6.28;1.00;;;;;;;;;;6155008;23;20048;-78
2022/05/27 13:19:23;;;;;;;3.03;0.70;;;;;;;;;;6155375;23;20379;-80
2022/05/27 13:21:52;;;;;;;2.65;1.00;;;;;;;;;;6155389;23;20085;-80
2022/05/27 13:24:18;;;;;;;3.10;0.77;;;;;;;;;;6155453;23;20005;-84
2022/05/27 13:26:47;;;;;;;3.00;0.70;;;;;;;;;;6157027;23;20028;-80
2022/05/27 13:29:25;;;;;;;7.45;0.93;;;;;;;;;;6155476;23;20489;-83
2022/05/27 13:31:57;;;;;;;5.07;0.80;;;;;;;;;;6155158;23;20009;-82
2022/05/27 13:34:30;;;;;;;4.80;0.60;;;;;;;;;;6155242;23;20483;-81
2022/05/27 13:36:57;;;;;;;3.80;0.63;;;;;;;;;;6155467;23;20010;-81
2022/05/27 13:39:30;;;;;;;6.25;0.80;;;;;;;;;;6156285;23;20011;-87
2022/05/27 13:45:04;;;;;;;2.50;0.52;;;;;;;;;;6099972;23;20042;-90
2022/05/27 13:47:31;;;;;;;3.25;0.57;;;;;;;;;;6097863;23;20074;-89
2022/05/27 13:49:57;;;;;;;5.35;0.70;;;;;;;;;;6097807;23;20007;-83
2022/05/27 13:52:25;;;;;;;2.72;0.60;;;;;;;;;;6096486;23;20017;-88
2022/05/27 13:55:03;;;;;;;3.67;0.50;;;;;;;;;;6096572;23;20332;-83
2022/05/27 13:57:30;;;;;;;5.13;0.70;;;;;;;;;;6098903;23;20022;-81
2022/05/27 13:59:58;;;;;;;5.65;0.80;;;;;;;;;;6097699;23;20034;-81
2022/05/27 14:02:26;;;;;;;4.57;0.93;;;;;;;;;;6095966;23;20085;-84
2022/05/27 14:04:54;;;;;;;4.40;0.80;;;;;;;;;;6096323;23;20009;-84
2022/05/27 14:07:31;;;;;;;5.80;0.70;;;;;;;;;;6096787;23;20044;-82
2022/05/27 14:09:59;;;;;;;3.13;0.70;;;;;;;;;;6096170;23;20443;-84
2022/05/27 14:12:29;;;;;;;2.42;0.80;;;;;;;;;;6096217;23;20377;-82
2022/05/27 14:14:56;;;;;;;1.35;0.60;;;;;;;;;;6097962;23;20002;-84
2022/05/27 14:17:23;;;;;;;2.30;0.73;;;;;;;;;;6097646;23;20014;-83
2022/05/27 14:20:00;;;;;;;8.02;0.70;;;;;;;;;;6095763;23;20010;-81
2022/05/27 14:22:39;;;;;;;7.05;0.55;;;;;;;;;;6096189;23;20452;-83
2022/05/27 14:25:08;;;;;;;1.58;0.40;;;;;;;;;;6095949;23;20014;-83
2022/05/27 14:27:36;;;;;;;4.38;0.63;;;;;;;;;;6098636;23;20336;-83
2022/05/27 14:30:05;;;;;;;4.28;0.65;;;;;;;;;;6100268;23;20026;-81
2022/05/27 14:32:36;;;;;;;2.55;0.70;;;;;;;;;;6095895;23;20188;-81
2022/05/27 14:35:04;;;;;;;4.65;0.65;;;;;;;;;;6095731;23;20340;-80
2022/05/27 14:37:33;;;;;;;3.45;0.82;;;;;;;;;;6097429;23;20021;-82
2022/05/27 14:40:11;;;;;;;1.30;0.50;;;;;;;;;;6095426;23;20524;-80
2022/05/27 14:42:37;;;;;;;6.03;0.88;;;;;;;;;;6102348;23;20024;-81
2022/05/27 14:45:08;;;;;;;4.05;0.50;;;;;;;;;;6126539;23;20008;-79
2022/05/27 14:47:34;;;;;;;5.57;0.80;;;;;;;;;;6126199;23;20006;-82
2022/05/27 14:50:02;;;;;;;6.68;0.88;;;;;;;;;;6125355;23;20010;-83
2022/05/27 14:52:31;;;;;;;6.22;0.70;;;;;;;;;;6120303;23;20060;-86
2022/05/27 14:55:01;;;;;;;7.88;0.60;;;;;;;;;;6127392;23;20048;-84
2022/05/27 14:57:28;;;;;;;5.13;0.70;;;;;;;;;;6124631;23;20020;-90
2022/05/27 15:00:02;;;;;;;5.53;0.80;;;;;;;;;;6126029;23;20013;-94
2022/05/27 15:02:32;;;;;;;1.52;0.60;;;;;;;;;;6125766;23;20030;-90
2022/05/27 15:05:01;;;;;;;2.92;0.70;;;;;;;;;;6126918;23;20041;-86
2022/05/27 15:07:32;;;;;;;1.95;0.40;;;;;;;;;;6126542;23;20061;-94
2022/05/27 15:10:00;;;;;;;4.28;0.68;;;;;;;;;;6126317;23;20005;-83
2022/05/27 15:12:28;;;;;;;2.72;0.80;;;;;;;;;;6125784;23;20007;-89
2022/05/27 15:14:55;;;;;;;2.80;0.60;;;;;;;;;;6126057;23;20006;-88
2022/05/27 15:17:34;;;;;;;5.50;0.70;;;;;;;;;;6125884;23;20017;-94
2022/05/27 15:20:05;;;;;;;3.55;0.70;;;;;;;;;;6128936;23;20023;-96
2022/05/27 15:22:50;;;;;;;4.35;0.70;;;;;;;;;;6130091;23;20010;-95
2022/05/27 15:25:18;;;;;;;3.17;0.60;;;;;;;;;;6131502;23;20006;-86
2022/05/27 15:33:52;;;;;;;6.72;0.82;;;;;;;;;;6127161;23;20013;-80
2022/05/27 15:36:20;;;;;;;2.35;0.70;;;;;;;;;;6128828;23;20009;-80
2022/05/27 15:38:47;;;;;;;5.85;1.00;;;;;;;;;;6126400;23;20010;-81
2022/05/27 15:41:14;;;;;;;2.58;0.80;;;;;;;;;;6124783;23;20006;-81
2022/05/27 15:43:42;;;;;;;4.88;0.90;;;;;;;;;;6123643;23;20080;-80
2022/05/27 15:46:10;;;;;;;3.03;0.80;;;;;;;;;;6124216;23;20030;-79
2022/05/27 15:48:36;;;;;;;3.95;0.77;;;;;;;;;;6126742;23;20029;-86
2022/05/27 15:51:03;;;;;;;2.53;0.60;;;;;;;;;;6126489;23;20006;-83
2022/05/27 15:53:29;;;;;;;3.05;0.68;;;;;;;;;;6124509;23;20099;-77
2022/05/27 15:55:55;;;;;;;5.85;0.80;;;;;;;;;;6125437;23;20025;-83
2022/05/27 15:58:22;;;;;;;2.65;0.60;;;;;;;;;;6125216;23;20014;-75
2022/05/27 16:00:48;;;;;;;3.65;0.77;;;;;;;;;;6125885;23;19998;-85
2022/05/27 16:03:18;;;;;;;6.22;0.80;;;;;;;;;;6125578;23;20064;-81
2022/05/27 16:05:44;;;;;;;3.67;0.70;;;;;;;;;;6125080;23;20006;-83
2022/05/27 16:08:10;;;;;;;2.42;0.73;;;;;;;;;;6124727;23;20076;-83